createdAt,value
2023-01-13T00:00:58.117Z,6.93
2023-01-13T00:03:24.814Z,7.17
2023-01-13T00:05:51.607Z,7.14
2023-01-13T00:08:18.069Z,7.14
2023-01-13T00:10:48.372Z,7.16
2023-01-13T00:13:16.328Z,7.17
2023-01-13T00:15:43.159Z,7.19
2023-01-13T00:18:09.727Z,7.15
2023-01-13T00:20:36.204Z,7.17
2023-01-13T00:23:04.457Z,7.21
2023-01-13T00:25:31.060Z,7.34
2023-01-13T00:27:57.680Z,7.44
2023-01-13T00:30:26.995Z,7.54
2023-01-13T00:32:53.914Z,7.55
2023-01-13T00:35:20.401Z,7.39
2023-01-13T00:37:46.862Z,7.46
2023-01-13T00:40:14.868Z,7.25
2023-01-13T00:43:00.042Z,6.79
2023-01-13T00:45:26.861Z,6.84
2023-01-13T00:47:53.428Z,6.88
2023-01-13T00:50:20.025Z,6.90
2023-01-13T00:52:46.584Z,6.93
2023-01-13T00:55:13.293Z,7.04
2023-01-13T00:57:40.153Z,7.07
2023-01-13T01:00:07.677Z,7.11
2023-01-13T01:02:34.210Z,7.17
2023-01-13T01:05:00.999Z,7.11
2023-01-13T01:07:27.567Z,7.11
2023-01-13T01:09:54.067Z,7.01
2023-01-13T01:12:20.551Z,7.10
2023-01-13T01:14:47.191Z,7.15
2023-01-13T01:17:13.757Z,7.19
2023-01-13T01:19:40.912Z,7.11
2023-01-13T01:22:07.677Z,6.96
2023-01-13T01:24:34.319Z,6.84
2023-01-13T01:27:00.880Z,6.74
2023-01-13T01:29:27.561Z,6.86
2023-01-13T01:31:54.146Z,6.99
2023-01-13T01:34:20.595Z,6.94
2023-01-13T01:36:47.197Z,6.92
2023-01-13T01:39:13.980Z,6.97
2023-01-13T01:42:01.117Z,6.85
2023-01-13T01:44:42.898Z,6.63
2023-01-13T01:47:12.925Z,6.48
2023-01-13T01:49:40.563Z,6.66
2023-01-13T01:52:29.496Z,6.81
2023-01-13T01:55:13.097Z,6.57
2023-01-13T01:57:55.367Z,6.66
2023-01-13T02:00:22.296Z,6.55
2023-01-13T02:02:51.569Z,6.79
2023-01-13T02:05:18.962Z,6.88
2023-01-13T02:07:51.434Z,6.97
2023-01-13T02:10:21.795Z,6.86
2023-01-13T02:12:49.675Z,6.91
2023-01-13T02:15:19.039Z,7.06
2023-01-13T02:18:00.971Z,7.09
2023-01-13T02:20:59.161Z,7.13
2023-01-13T02:24:06.415Z,7.05
2023-01-13T02:26:51.884Z,7.04
2023-01-13T02:30:01.772Z,7.18
2023-01-13T02:32:43.678Z,7.32
2023-01-13T02:35:28.327Z,7.37
2023-01-13T02:37:58.684Z,7.40
2023-01-13T02:40:33.804Z,7.50
2023-01-13T02:43:35.315Z,7.60
2023-01-13T02:46:15.975Z,7.70
2023-01-13T02:48:46.150Z,7.63
2023-01-13T02:51:17.123Z,7.69
2023-01-13T02:54:09.491Z,7.64
2023-01-13T02:56:42.142Z,7.76
2023-01-13T02:59:10.475Z,7.76
2023-01-13T03:01:37.603Z,7.70
2023-01-13T03:04:47.342Z,7.68
2023-01-13T03:07:22.856Z,7.74
2023-01-13T03:09:57.673Z,7.82
2023-01-13T03:13:05.007Z,7.80
2023-01-13T03:16:00.064Z,7.80
2023-01-13T03:18:38.682Z,7.90
2023-01-13T03:21:05.495Z,7.63
2023-01-13T03:23:35.205Z,7.58
2023-01-13T03:26:08.935Z,7.69
2023-01-13T03:28:51.086Z,7.67
2023-01-13T03:31:24.987Z,7.66
2023-01-13T03:34:17.348Z,7.63
2023-01-13T03:36:46.251Z,7.57
2023-01-13T03:39:22.678Z,7.60
2023-01-13T03:41:57.563Z,7.68
2023-01-13T03:44:32.939Z,7.74
2023-01-13T03:47:02.279Z,7.73
2023-01-13T03:49:34.882Z,7.78
2023-01-13T03:52:06.466Z,7.75
2023-01-13T03:54:36.285Z,7.72
2023-01-13T03:57:08.962Z,7.67
2023-01-13T03:59:40.932Z,7.68
2023-01-13T04:02:12.780Z,7.79
2023-01-13T04:04:47.058Z,7.86
2023-01-13T04:07:19.747Z,7.77
2023-01-13T04:09:51.165Z,7.73
2023-01-13T04:12:28.268Z,7.87
2023-01-13T04:14:56.317Z,7.86
2023-01-13T04:17:24.639Z,7.81
2023-01-13T04:19:51.206Z,7.96
2023-01-13T04:22:18.011Z,7.96
2023-01-13T04:24:44.934Z,7.90
2023-01-13T04:27:11.848Z,7.96
2023-01-13T04:29:38.684Z,8.07
2023-01-13T04:32:05.170Z,7.87
2023-01-13T04:34:31.984Z,7.63
2023-01-13T04:36:58.937Z,7.58
2023-01-13T04:39:25.462Z,7.65
2023-01-13T04:41:58.396Z,7.74
2023-01-13T04:44:26.153Z,7.66
2023-01-13T04:46:53.027Z,7.45
2023-01-13T04:49:20.217Z,7.47
2023-01-13T04:51:47.144Z,7.63
2023-01-13T04:54:14.036Z,7.44
2023-01-13T04:56:40.540Z,7.57
2023-01-13T04:59:07.146Z,7.70
2023-01-13T05:01:33.784Z,7.69
2023-01-13T05:04:00.581Z,7.62
2023-01-13T05:06:27.114Z,7.67
2023-01-13T05:08:53.736Z,7.53
2023-01-13T05:11:39.038Z,7.40
2023-01-13T05:14:24.355Z,7.46
2023-01-13T05:17:03.862Z,7.54
2023-01-13T05:19:35.971Z,7.77
2023-01-13T05:22:22.634Z,7.77
2023-01-13T05:25:07.568Z,7.78
2023-01-13T05:27:34.098Z,7.98
2023-01-13T05:30:01.177Z,8.08
2023-01-13T05:32:30.577Z,8.06
2023-01-13T05:34:57.314Z,8.03
2023-01-13T05:37:25.714Z,7.90
2023-01-13T05:40:11.503Z,7.61
2023-01-13T05:42:57.569Z,7.66
2023-01-13T05:45:24.715Z,7.86
2023-01-13T05:47:51.357Z,8.00
2023-01-13T05:50:18.605Z,8.06
2023-01-13T05:52:46.284Z,8.08
2023-01-13T05:55:12.894Z,8.09
2023-01-13T05:57:39.441Z,8.18
2023-01-13T06:00:06.851Z,8.20
2023-01-13T06:06:22.865Z,7.88
2023-01-13T06:08:49.351Z,7.91
2023-01-13T06:11:16.097Z,8.03
2023-01-13T06:13:42.770Z,8.11
2023-01-13T06:16:09.423Z,7.98
2023-01-13T06:18:35.997Z,7.96
2023-01-13T06:21:02.447Z,7.92
2023-01-13T06:23:29.464Z,7.94
2023-01-13T06:26:07.132Z,7.94
2023-01-13T06:28:34.859Z,8.01
2023-01-13T06:31:05.573Z,8.09
2023-01-13T06:33:39.175Z,8.20
2023-01-13T06:36:12.120Z,8.20
2023-01-13T06:38:42.377Z,8.25
2023-01-13T06:41:09.413Z,8.30
2023-01-13T06:43:36.130Z,8.27
2023-01-13T06:46:03.389Z,8.26
2023-01-13T06:48:34.132Z,8.23
2023-01-13T06:51:01.868Z,8.18
2023-01-13T06:53:28.496Z,8.11
2023-01-13T06:55:54.979Z,8.04
2023-01-13T06:58:21.445Z,8.02
2023-01-13T07:00:51.490Z,8.04
2023-01-13T07:03:19.757Z,8.04
2023-01-13T07:05:53.276Z,8.03
2023-01-13T07:08:20.648Z,7.66
2023-01-13T07:10:47.109Z,7.65
2023-01-13T07:13:32.488Z,7.83
2023-01-13T07:16:05.357Z,7.92
2023-01-13T07:18:33.234Z,8.04
2023-01-13T07:21:08.170Z,8.15
2023-01-13T07:23:41.906Z,8.28
2023-01-13T07:26:10.233Z,8.34
2023-01-13T07:28:37.676Z,8.21
2023-01-13T07:31:04.853Z,8.30
2023-01-13T07:33:33.255Z,8.33
2023-01-13T07:36:02.543Z,8.21
2023-01-13T07:38:29.984Z,8.11
2023-01-13T07:40:56.482Z,8.12
2023-01-13T07:43:32.083Z,8.04
2023-01-13T07:46:04.882Z,8.08
2023-01-13T07:48:33.644Z,8.10
2023-01-13T07:51:10.394Z,8.04
2023-01-13T07:53:37.593Z,8.18
2023-01-13T07:56:05.885Z,8.27
2023-01-13T07:58:39.125Z,8.11
2023-01-13T08:01:14.061Z,8.05
2023-01-13T08:03:41.023Z,8.13
2023-01-13T08:06:07.862Z,7.88
2023-01-13T08:08:34.515Z,7.84
2023-01-13T08:11:03.069Z,8.02
2023-01-13T08:13:29.613Z,8.29
2023-01-13T08:16:01.268Z,8.33
2023-01-13T08:18:27.862Z,8.51
2023-01-13T08:20:54.450Z,8.71
2023-01-13T08:23:22.810Z,8.60
2023-01-13T08:25:49.874Z,8.71
2023-01-13T08:28:17.513Z,8.79
2023-01-13T08:30:44.587Z,8.75
2023-01-13T08:33:12.495Z,8.49
2023-01-13T08:35:40.254Z,8.45
2023-01-13T08:38:08.140Z,8.73
2023-01-13T08:40:35.268Z,8.90
2023-01-13T08:43:01.830Z,9.09
2023-01-13T08:45:28.387Z,9.28
2023-01-13T08:47:55.005Z,9.44
2023-01-13T08:50:21.595Z,9.45
2023-01-13T08:52:48.356Z,9.23
2023-01-13T08:55:15.839Z,9.44
2023-01-13T08:57:42.389Z,9.46
2023-01-13T09:00:09.930Z,9.55
2023-01-13T09:02:38.423Z,9.59
2023-01-13T09:05:07.354Z,9.35
2023-01-13T09:07:35.720Z,9.40
2023-01-13T09:10:04.171Z,9.53
2023-01-13T09:12:49.305Z,9.43
2023-01-13T09:15:18.519Z,9.51
2023-01-13T09:17:46.049Z,9.73
2023-01-13T09:20:13.063Z,9.81
2023-01-13T09:22:40.777Z,9.55
2023-01-13T09:25:07.699Z,9.53
2023-01-13T09:27:34.302Z,9.61
2023-01-13T09:30:00.758Z,9.64
2023-01-13T09:32:27.560Z,9.68
2023-01-13T09:34:59.959Z,9.79
2023-01-13T09:37:34.216Z,9.90
2023-01-13T09:40:01.636Z,9.91
2023-01-13T09:43:11.203Z,9.88
2023-01-13T09:45:47.503Z,9.94
2023-01-13T09:48:29.675Z,10.05
2023-01-13T09:51:18.697Z,10.14
2023-01-13T09:53:55.825Z,10.11
2023-01-13T09:56:25.962Z,10.21
2023-01-13T09:58:52.554Z,10.16
2023-01-13T10:01:26.385Z,10.18
2023-01-13T10:03:53.712Z,10.36
2023-01-13T10:06:39.415Z,10.53
2023-01-13T10:09:06.413Z,10.63
2023-01-13T10:11:57.599Z,10.70
2023-01-13T10:14:30.670Z,10.84
2023-01-13T10:17:39.961Z,10.94
2023-01-13T10:20:19.300Z,11.30
2023-01-13T10:22:53.358Z,11.81
2023-01-13T10:25:31.873Z,12.38
2023-01-13T10:28:01.952Z,12.32
2023-01-13T10:30:40.853Z,11.99
2023-01-13T10:33:18.940Z,11.85
2023-01-13T10:35:52.114Z,11.64
2023-01-13T10:38:23.516Z,11.58
2023-01-13T10:40:56.010Z,11.51
2023-01-13T10:43:23.009Z,11.29
2023-01-13T10:46:11.779Z,11.38
2023-01-13T10:48:58.675Z,11.38
2023-01-13T10:51:29.727Z,11.18
2023-01-13T10:54:12.741Z,10.91
2023-01-13T10:56:42.747Z,11.14
2023-01-13T10:59:27.399Z,11.29
2023-01-13T11:02:01.221Z,10.95
2023-01-13T11:04:30.620Z,11.18
2023-01-13T11:06:57.934Z,11.39
2023-01-13T11:09:26.274Z,11.55
2023-01-13T11:11:56.439Z,11.95
2023-01-13T11:14:33.461Z,12.24
2023-01-13T11:17:05.409Z,12.51
2023-01-13T11:19:32.881Z,12.59
2023-01-13T11:22:21.623Z,12.67
2023-01-13T11:24:53.382Z,12.93
2023-01-13T11:27:40.032Z,13.01
2023-01-13T11:30:09.921Z,13.18
2023-01-13T11:33:06.228Z,12.86
2023-01-13T11:35:37.886Z,12.99
2023-01-13T11:38:28.963Z,13.39
2023-01-13T11:41:05.104Z,13.66
2023-01-13T11:43:44.097Z,13.74
2023-01-13T11:46:11.006Z,13.57
2023-01-13T11:48:42.071Z,13.41
2023-01-13T11:51:14.658Z,13.77
2023-01-13T11:53:44.095Z,14.62
2023-01-13T11:56:13.214Z,15.21
2023-01-13T11:59:10.826Z,15.27
2023-01-13T12:01:50.684Z,17.50
2023-01-13T12:04:23.720Z,20.28
2023-01-13T12:07:07.389Z,20.88
2023-01-13T12:09:49.891Z,22.16
2023-01-13T12:12:39.473Z,25.55
2023-01-13T12:15:37.911Z,25.55
2023-01-13T12:18:31.053Z,29.43
2023-01-13T12:21:06.890Z,29.84
2023-01-13T12:23:46.113Z,29.08
2023-01-13T12:26:17.002Z,28.75
2023-01-13T12:28:56.104Z,27.07
2023-01-13T12:31:23.772Z,23.72
2023-01-13T12:34:00.572Z,21.03
2023-01-13T12:36:58.777Z,19.37
2023-01-13T12:39:46.922Z,18.54
2023-01-13T12:42:53.052Z,17.48
2023-01-13T12:45:21.815Z,16.06
2023-01-13T12:47:48.614Z,15.63
2023-01-13T12:50:27.223Z,15.38
2023-01-13T12:52:56.293Z,15.04
2023-01-13T12:55:23.389Z,14.26
2023-01-13T12:58:08.194Z,13.54
2023-01-13T13:00:40.803Z,13.42
2023-01-13T13:03:19.355Z,13.10
2023-01-13T13:06:07.432Z,12.85
2023-01-13T13:08:43.162Z,12.71
2023-01-13T13:11:53.486Z,12.24
2023-01-13T13:14:42.148Z,11.76
2023-01-13T13:17:29.842Z,11.57
2023-01-13T13:19:58.164Z,11.68
2023-01-13T13:22:27.439Z,11.59
2023-01-13T13:25:00.220Z,11.19
2023-01-13T13:27:38.062Z,11.16
2023-01-13T13:30:12.841Z,10.94
2023-01-13T13:32:45.434Z,10.53
2023-01-13T13:35:27.932Z,10.37
2023-01-13T13:38:22.290Z,10.42
2023-01-13T13:41:08.314Z,10.56
2023-01-13T13:44:00.540Z,10.66
2023-01-13T13:46:49.088Z,10.52
2023-01-13T13:49:22.434Z,10.36
2023-01-13T13:52:00.068Z,10.35
2023-01-13T13:54:27.390Z,10.48
2023-01-13T13:56:54.505Z,10.70
2023-01-13T13:59:28.000Z,10.61
2023-01-13T14:02:03.990Z,10.63
2023-01-13T14:04:33.047Z,10.59
2023-01-13T14:07:26.282Z,10.71
2023-01-13T14:09:54.611Z,10.86
2023-01-13T14:12:24.160Z,10.98
2023-01-13T14:14:52.004Z,10.99
2023-01-13T14:17:22.276Z,11.02
2023-01-13T14:20:14.710Z,10.76
2023-01-13T14:22:49.383Z,10.57
2023-01-13T14:25:31.013Z,10.53
2023-01-13T14:28:00.025Z,10.37
2023-01-13T14:30:28.096Z,10.26
2023-01-13T14:32:56.574Z,10.26
2023-01-13T14:35:23.473Z,10.22
2023-01-13T14:37:54.226Z,9.97
2023-01-13T14:40:32.840Z,10.12
2023-01-13T14:43:03.101Z,9.97
2023-01-13T14:45:32.971Z,9.99
2023-01-13T14:48:01.782Z,10.06
2023-01-13T14:50:33.841Z,10.11
2023-01-13T14:53:01.618Z,10.23
2023-01-13T14:55:34.401Z,10.20
2023-01-13T14:58:23.331Z,10.22
2023-01-13T15:00:51.965Z,10.36
2023-01-13T15:03:20.119Z,10.28
2023-01-13T15:05:53.567Z,10.13
2023-01-13T15:08:30.509Z,9.98
2023-01-13T15:11:02.760Z,9.90
2023-01-13T15:13:29.288Z,9.96
2023-01-13T15:15:57.563Z,10.07
2023-01-13T15:18:24.210Z,9.94
2023-01-13T15:20:53.486Z,9.67
2023-01-13T15:23:20.608Z,9.86
2023-01-13T15:25:49.669Z,10.00
2023-01-13T15:28:22.217Z,10.09
2023-01-13T15:30:50.190Z,10.21
2023-01-13T15:33:18.308Z,10.33
2023-01-13T15:35:51.703Z,10.34
2023-01-13T15:38:21.138Z,10.25
2023-01-13T15:40:50.786Z,10.23
2023-01-13T15:43:42.109Z,10.12
2023-01-13T15:46:38.010Z,10.09
2023-01-13T15:49:41.165Z,9.98
2023-01-13T15:52:23.478Z,9.90
2023-01-13T15:54:51.177Z,9.73
2023-01-13T15:57:32.730Z,9.73
2023-01-13T16:00:02.460Z,9.92
2023-01-13T16:02:30.934Z,9.94
2023-01-13T16:04:57.545Z,9.88
2023-01-13T16:07:25.810Z,9.88
2023-01-13T16:09:53.037Z,9.93
2023-01-13T16:12:19.579Z,9.80
2023-01-13T16:14:47.142Z,9.83
2023-01-13T16:17:20.029Z,9.79
2023-01-13T16:19:47.935Z,9.83
2023-01-13T16:22:18.877Z,9.91
2023-01-13T16:24:45.370Z,9.81
2023-01-13T16:27:15.920Z,9.75
2023-01-13T16:29:43.089Z,9.83
2023-01-13T16:32:09.920Z,9.71
2023-01-13T16:34:36.588Z,9.55
2023-01-13T16:37:03.203Z,9.61
2023-01-13T16:39:30.943Z,9.63
2023-01-13T16:41:58.181Z,9.29
2023-01-13T16:44:24.719Z,9.33
2023-01-13T16:46:51.337Z,9.38
2023-01-13T16:49:21.009Z,9.43
2023-01-13T16:51:50.283Z,9.53
2023-01-13T16:54:19.157Z,9.68
2023-01-13T16:56:45.916Z,9.64
2023-01-13T16:59:17.821Z,9.69
2023-01-13T17:01:49.855Z,9.69
2023-01-13T17:04:21.920Z,9.46
2023-01-13T17:06:55.988Z,9.44
2023-01-13T17:09:24.839Z,9.34
2023-01-13T17:11:52.470Z,9.22
2023-01-13T17:14:21.813Z,9.32
2023-01-13T17:16:51.785Z,9.40
2023-01-13T17:19:21.411Z,9.27
2023-01-13T17:21:54.212Z,9.18
2023-01-13T17:24:21.397Z,9.29
2023-01-13T17:26:52.455Z,9.30
2023-01-13T17:29:25.169Z,8.85
2023-01-13T17:31:53.225Z,8.78
2023-01-13T17:34:21.147Z,8.80
2023-01-13T17:36:52.667Z,8.85
2023-01-13T17:39:22.272Z,8.99
2023-01-13T17:41:58.352Z,8.91
2023-01-13T17:44:25.069Z,9.09
2023-01-13T17:46:51.636Z,9.17
2023-01-13T17:49:19.842Z,9.23
2023-01-13T17:51:48.867Z,9.39
2023-01-13T17:54:15.920Z,9.40
2023-01-13T17:56:43.237Z,9.37
2023-01-13T17:59:12.249Z,9.09
2023-01-13T18:01:39.881Z,9.15
2023-01-13T18:04:07.086Z,9.01
2023-01-13T18:06:34.233Z,8.83
2023-01-13T18:09:01.215Z,8.51
2023-01-13T18:11:27.947Z,8.64
2023-01-13T18:13:56.894Z,8.86
2023-01-13T18:16:24.811Z,8.92
2023-01-13T18:18:53.340Z,8.84
2023-01-13T18:21:44.169Z,8.72
2023-01-13T18:24:32.315Z,8.77
2023-01-13T18:27:20.400Z,8.92
2023-01-13T18:29:48.879Z,8.95
2023-01-13T18:32:15.639Z,8.67
2023-01-13T18:34:42.597Z,8.73
2023-01-13T18:37:13.040Z,8.88
2023-01-13T18:39:39.590Z,8.91
2023-01-13T18:42:42.849Z,8.87
2023-01-13T18:45:10.701Z,8.89
2023-01-13T18:47:39.163Z,9.01
2023-01-13T18:50:06.195Z,9.14
2023-01-13T18:52:33.164Z,9.29
2023-01-13T18:54:59.696Z,9.31
2023-01-13T18:57:26.182Z,9.01
2023-01-13T18:59:52.769Z,9.03
2023-01-13T19:02:20.858Z,9.07
2023-01-13T19:04:50.709Z,8.97
2023-01-13T19:07:23.671Z,8.98
2023-01-13T19:09:50.356Z,9.17
2023-01-13T19:12:25.838Z,9.19
2023-01-13T19:14:56.739Z,9.27
2023-01-13T19:17:25.439Z,8.92
2023-01-13T19:19:54.280Z,9.02
2023-01-13T19:22:29.518Z,8.89
2023-01-13T19:24:57.138Z,8.70
2023-01-13T19:27:24.228Z,8.85
2023-01-13T19:29:52.483Z,9.06
2023-01-13T19:32:21.097Z,9.05
2023-01-13T19:34:51.080Z,9.03
2023-01-13T19:37:19.509Z,9.11
2023-01-13T19:39:46.239Z,8.84
2023-01-13T19:42:32.180Z,8.72
2023-01-13T19:45:20.027Z,8.54
2023-01-13T19:47:47.886Z,8.71
2023-01-13T19:50:14.988Z,8.86
2023-01-13T19:52:42.565Z,8.82
2023-01-13T19:55:11.779Z,8.85
2023-01-13T19:57:40.082Z,9.05
2023-01-13T20:00:08.072Z,8.97
2023-01-13T20:02:36.690Z,8.91
2023-01-13T20:05:05.859Z,8.95
2023-01-13T20:07:33.470Z,8.93
2023-01-13T20:10:01.558Z,9.04
2023-01-13T20:12:29.213Z,8.97
2023-01-13T20:14:56.033Z,8.91
2023-01-13T20:17:22.996Z,8.88
2023-01-13T20:19:51.694Z,8.72
2023-01-13T20:22:19.424Z,8.84
2023-01-13T20:24:45.981Z,8.91
2023-01-13T20:27:12.857Z,8.92
2023-01-13T20:29:39.828Z,8.64
2023-01-13T20:32:06.409Z,8.27
2023-01-13T20:34:33.011Z,8.18
2023-01-13T20:37:00.617Z,8.30
2023-01-13T20:39:27.322Z,8.31
2023-01-13T20:42:13.552Z,8.46
2023-01-13T20:44:40.726Z,8.37
2023-01-13T20:47:07.750Z,8.65
2023-01-13T20:49:36.216Z,8.80
2023-01-13T20:52:09.033Z,8.86
2023-01-13T20:54:40.261Z,8.74
2023-01-13T20:57:09.775Z,8.98
2023-01-13T20:59:37.953Z,9.06
2023-01-13T21:02:06.144Z,9.09
2023-01-13T21:04:32.776Z,8.91
2023-01-13T21:06:59.289Z,8.76
2023-01-13T21:09:27.300Z,8.92
2023-01-13T21:12:17.917Z,8.99
2023-01-13T21:15:02.852Z,8.95
2023-01-13T21:17:51.202Z,8.97
2023-01-13T21:20:18.944Z,8.89
2023-01-13T21:22:47.806Z,8.78
2023-01-13T21:25:15.806Z,8.56
2023-01-13T21:27:44.124Z,8.76
2023-01-13T21:30:15.217Z,8.74
2023-01-13T21:32:43.137Z,8.77
2023-01-13T21:35:11.094Z,8.83
2023-01-13T21:37:38.720Z,8.97
2023-01-13T21:40:08.243Z,8.84
2023-01-13T21:42:53.707Z,8.65
2023-01-13T21:45:39.200Z,8.91
2023-01-13T21:48:07.344Z,8.92
2023-01-13T21:50:34.825Z,8.96
2023-01-13T21:53:01.440Z,9.25
2023-01-13T21:55:28.909Z,9.31
2023-01-13T21:58:01.507Z,9.39
2023-01-13T22:00:31.279Z,9.38
2023-01-13T22:02:58.791Z,9.15
2023-01-13T22:05:26.432Z,9.17
2023-01-13T22:07:53.564Z,9.38
2023-01-13T22:10:22.722Z,9.57
2023-01-13T22:12:53.942Z,9.53
2023-01-13T22:15:22.229Z,9.32
2023-01-13T22:17:52.782Z,9.02
2023-01-13T22:20:20.501Z,9.21
2023-01-13T22:22:50.128Z,9.41
2023-01-13T22:25:20.265Z,9.54
2023-01-13T22:27:49.276Z,9.66
2023-01-13T22:30:21.717Z,9.69
2023-01-13T22:32:49.051Z,9.69
2023-01-13T22:35:16.198Z,9.58
2023-01-13T22:37:43.234Z,9.49
2023-01-13T22:40:12.295Z,9.35
2023-01-13T22:42:43.355Z,9.27
2023-01-13T22:45:12.095Z,9.19
2023-01-13T22:47:38.669Z,9.11
2023-01-13T22:50:06.431Z,9.01
2023-01-13T22:52:36.485Z,9.04
2023-01-13T22:55:04.038Z,9.03
2023-01-13T22:57:36.064Z,8.97
2023-01-13T23:00:06.374Z,9.09
2023-01-13T23:02:34.516Z,9.19
2023-01-13T23:05:01.471Z,9.34
2023-01-13T23:07:28.108Z,9.30
2023-01-13T23:09:54.591Z,9.15
2023-01-13T23:12:21.114Z,9.26
2023-01-13T23:14:48.346Z,9.22
2023-01-13T23:17:14.786Z,9.21
2023-01-13T23:19:41.593Z,9.23
2023-01-13T23:22:08.044Z,9.02
2023-01-13T23:24:34.558Z,8.83
2023-01-13T23:27:01.001Z,8.65
2023-01-13T23:29:27.786Z,8.64
2023-01-13T23:31:54.354Z,8.81
2023-01-13T23:34:20.906Z,8.96
2023-01-13T23:36:48.215Z,9.09
2023-01-13T23:39:15.105Z,9.15
2023-01-13T23:41:41.849Z,9.13
2023-01-13T23:44:09.257Z,9.06
2023-01-13T23:46:35.820Z,9.07
2023-01-13T23:49:04.990Z,9.10
2023-01-13T23:51:32.046Z,9.26
2023-01-13T23:53:59.527Z,9.25
2023-01-13T23:56:30.799Z,9.24
2023-01-13T23:58:57.671Z,9.02
